sensor_id;sensor_type;location;lat;lon;timestamp;P1;durP1;ratioP1;P2;durP2;ratioP2
1010;SDS011;494;48.744;10.106;2022-10-17T00:02:26;23.63;;;8.10;;
1010;SDS011;494;48.744;10.106;2022-10-17T00:04:55;21.77;;;7.50;;
1010;SDS011;494;48.744;10.106;2022-10-17T00:07:23;24.30;;;8.13;;
1010;SDS011;494;48.744;10.106;2022-10-17T00:09:52;21.07;;;8.47;;
1010;SDS011;494;48.744;10.106;2022-10-17T00:12:21;20.80;;;8.87;;
1010;SDS011;494;48.744;10.106;2022-10-17T00:14:50;27.77;;;9.20;;
1010;SDS011;494;48.744;10.106;2022-10-17T00:17:18;21.40;;;7.77;;
1010;SDS011;494;48.744;10.106;2022-10-17T00:19:48;28.80;;;8.80;;
1010;SDS011;494;48.744;10.106;2022-10-17T00:22:17;19.27;;;8.93;;
1010;SDS011;494;48.744;10.106;2022-10-17T00:24:45;23.70;;;8.87;;
1010;SDS011;494;48.744;10.106;2022-10-17T00:27:14;28.33;;;8.93;;
1010;SDS011;494;48.744;10.106;2022-10-17T00:29:46;33.43;;;9.67;;
1010;SDS011;494;48.744;10.106;2022-10-17T00:32:18;20.43;;;8.50;;
1010;SDS011;494;48.744;10.106;2022-10-17T00:34:49;20.80;;;8.33;;
1010;SDS011;494;48.744;10.106;2022-10-17T00:37:18;29.90;;;9.43;;
1010;SDS011;494;48.744;10.106;2022-10-17T00:39:47;19.47;;;7.73;;
1010;SDS011;494;48.744;10.106;2022-10-17T00:42:15;21.30;;;8.53;;
1010;SDS011;494;48.744;10.106;2022-10-17T00:44:56;13.43;;;6.40;;
1010;SDS011;494;48.744;10.106;2022-10-17T00:47:43;18.33;;;8.13;;
1010;SDS011;494;48.744;10.106;2022-10-17T00:50:18;17.93;;;7.67;;
1010;SDS011;494;48.744;10.106;2022-10-17T00:52:47;20.53;;;7.63;;
1010;SDS011;494;48.744;10.106;2022-10-17T00:55:18;18.47;;;12.23;;
1010;SDS011;494;48.744;10.106;2022-10-17T00:57:51;23.97;;;13.40;;
1010;SDS011;494;48.744;10.106;2022-10-17T01:00:20;25.00;;;13.73;;
1010;SDS011;494;48.744;10.106;2022-10-17T01:02:50;24.53;;;14.00;;
1010;SDS011;494;48.744;10.106;2022-10-17T01:05:20;25.40;;;15.63;;
1010;SDS011;494;48.744;10.106;2022-10-17T01:07:49;23.70;;;13.70;;
1010;SDS011;494;48.744;10.106;2022-10-17T01:10:21;24.90;;;14.23;;
1010;SDS011;494;48.744;10.106;2022-10-17T01:13:00;23.90;;;12.57;;
1010;SDS011;494;48.744;10.106;2022-10-17T01:15:42;22.73;;;14.93;;
1010;SDS011;494;48.744;10.106;2022-10-17T01:18:25;20.80;;;14.47;;
1010;SDS011;494;48.744;10.106;2022-10-17T01:21:14;20.10;;;14.00;;
1010;SDS011;494;48.744;10.106;2022-10-17T01:24:00;26.00;;;16.00;;
1010;SDS011;494;48.744;10.106;2022-10-17T01:30:25;22.40;;;16.60;;
1010;SDS011;494;48.744;10.106;2022-10-17T01:33:16;33.10;;;16.10;;
1010;SDS011;494;48.744;10.106;2022-10-17T01:35:53;26.20;;;16.20;;
1010;SDS011;494;48.744;10.106;2022-10-17T01:38:32;27.60;;;16.73;;
1010;SDS011;494;48.744;10.106;2022-10-17T01:41:11;26.80;;;15.30;;
1010;SDS011;494;48.744;10.106;2022-10-17T01:43:55;28.37;;;15.47;;
1010;SDS011;494;48.744;10.106;2022-10-17T01:46:33;22.50;;;14.50;;
1010;SDS011;494;48.744;10.106;2022-10-17T01:49:05;20.47;;;13.43;;
1010;SDS011;494;48.744;10.106;2022-10-17T01:51:38;18.27;;;11.63;;
1010;SDS011;494;48.744;10.106;2022-10-17T01:54:14;20.27;;;11.10;;
1010;SDS011;494;48.744;10.106;2022-10-17T01:56:51;17.60;;;10.33;;
1010;SDS011;494;48.744;10.106;2022-10-17T01:59:26;18.93;;;10.17;;
1010;SDS011;494;48.744;10.106;2022-10-17T02:02:05;17.07;;;10.10;;
1010;SDS011;494;48.744;10.106;2022-10-17T02:04:37;19.00;;;10.30;;
1010;SDS011;494;48.744;10.106;2022-10-17T02:07:07;17.23;;;10.20;;
1010;SDS011;494;48.744;10.106;2022-10-17T02:09:40;16.60;;;10.20;;
1010;SDS011;494;48.744;10.106;2022-10-17T02:15:19;16.10;;;8.00;;
1010;SDS011;494;48.744;10.106;2022-10-17T02:18:07;16.13;;;9.23;;
1010;SDS011;494;48.744;10.106;2022-10-17T02:20:51;17.00;;;10.13;;
1010;SDS011;494;48.744;10.106;2022-10-17T02:23:26;17.67;;;10.70;;
1010;SDS011;494;48.744;10.106;2022-10-17T02:26:05;16.97;;;10.83;;
1010;SDS011;494;48.744;10.106;2022-10-17T02:28:39;16.77;;;10.50;;
1010;SDS011;494;48.744;10.106;2022-10-17T02:31:15;15.97;;;8.27;;
1010;SDS011;494;48.744;10.106;2022-10-17T02:33:53;15.63;;;9.90;;
1010;SDS011;494;48.744;10.106;2022-10-17T02:36:29;12.90;;;8.80;;
1010;SDS011;494;48.744;10.106;2022-10-17T02:39:05;13.87;;;9.33;;
1010;SDS011;494;48.744;10.106;2022-10-17T02:41:37;12.80;;;8.73;;
1010;SDS011;494;48.744;10.106;2022-10-17T02:44:09;13.70;;;8.63;;
1010;SDS011;494;48.744;10.106;2022-10-17T02:46:38;15.00;;;9.27;;
1010;SDS011;494;48.744;10.106;2022-10-17T02:49:14;20.07;;;9.20;;
1010;SDS011;494;48.744;10.106;2022-10-17T02:51:51;15.30;;;8.40;;
1010;SDS011;494;48.744;10.106;2022-10-17T02:54:30;15.33;;;9.40;;
1010;SDS011;494;48.744;10.106;2022-10-17T02:57:07;19.00;;;7.50;;
1010;SDS011;494;48.744;10.106;2022-10-17T02:59:43;12.53;;;6.83;;
1010;SDS011;494;48.744;10.106;2022-10-17T03:02:14;15.60;;;7.33;;
1010;SDS011;494;48.744;10.106;2022-10-17T03:04:44;13.70;;;7.13;;
1010;SDS011;494;48.744;10.106;2022-10-17T03:07:14;15.10;;;7.73;;
1010;SDS011;494;48.744;10.106;2022-10-17T03:09:42;14.27;;;7.50;;
1010;SDS011;494;48.744;10.106;2022-10-17T03:12:11;15.90;;;9.40;;
1010;SDS011;494;48.744;10.106;2022-10-17T03:14:40;14.00;;;8.40;;
1010;SDS011;494;48.744;10.106;2022-10-17T03:17:08;14.33;;;8.90;;
1010;SDS011;494;48.744;10.106;2022-10-17T03:19:37;15.90;;;7.70;;
1010;SDS011;494;48.744;10.106;2022-10-17T03:22:07;15.50;;;7.53;;
1010;SDS011;494;48.744;10.106;2022-10-17T03:24:35;14.03;;;7.90;;
1010;SDS011;494;48.744;10.106;2022-10-17T03:27:04;12.83;;;8.17;;
1010;SDS011;494;48.744;10.106;2022-10-17T03:29:32;16.87;;;8.20;;
1010;SDS011;494;48.744;10.106;2022-10-17T03:32:01;13.40;;;8.00;;
1010;SDS011;494;48.744;10.106;2022-10-17T03:34:30;14.23;;;8.30;;
1010;SDS011;494;48.744;10.106;2022-10-17T03:36:59;15.20;;;7.10;;
1010;SDS011;494;48.744;10.106;2022-10-17T03:39:29;14.70;;;8.37;;
1010;SDS011;494;48.744;10.106;2022-10-17T03:41:57;14.93;;;9.40;;
1010;SDS011;494;48.744;10.106;2022-10-17T03:44:26;17.60;;;9.00;;
1010;SDS011;494;48.744;10.106;2022-10-17T03:46:55;19.60;;;9.40;;
1010;SDS011;494;48.744;10.106;2022-10-17T03:49:24;18.43;;;9.07;;
1010;SDS011;494;48.744;10.106;2022-10-17T03:51:53;13.87;;;7.50;;
1010;SDS011;494;48.744;10.106;2022-10-17T03:54:22;12.50;;;7.80;;
1010;SDS011;494;48.744;10.106;2022-10-17T03:56:52;18.30;;;8.47;;
1010;SDS011;494;48.744;10.106;2022-10-17T03:59:23;15.37;;;7.80;;
1010;SDS011;494;48.744;10.106;2022-10-17T04:01:52;20.23;;;9.60;;
1010;SDS011;494;48.744;10.106;2022-10-17T04:04:20;19.03;;;8.60;;
1010;SDS011;494;48.744;10.106;2022-10-17T04:06:49;15.60;;;7.60;;
1010;SDS011;494;48.744;10.106;2022-10-17T04:09:17;18.80;;;8.43;;
1010;SDS011;494;48.744;10.106;2022-10-17T04:11:46;20.43;;;9.10;;
1010;SDS011;494;48.744;10.106;2022-10-17T04:14:16;17.67;;;7.70;;
1010;SDS011;494;48.744;10.106;2022-10-17T04:16:45;15.03;;;7.73;;
1010;SDS011;494;48.744;10.106;2022-10-17T04:19:13;22.83;;;7.83;;
1010;SDS011;494;48.744;10.106;2022-10-17T04:21:42;16.33;;;7.60;;
1010;SDS011;494;48.744;10.106;2022-10-17T04:24:11;18.73;;;7.57;;
1010;SDS011;494;48.744;10.106;2022-10-17T04:26:39;14.80;;;7.97;;
1010;SDS011;494;48.744;10.106;2022-10-17T04:29:08;18.83;;;8.20;;
1010;SDS011;494;48.744;10.106;2022-10-17T04:31:38;15.80;;;7.80;;
1010;SDS011;494;48.744;10.106;2022-10-17T04:34:06;16.93;;;8.00;;
1010;SDS011;494;48.744;10.106;2022-10-17T04:36:35;19.27;;;7.87;;
1010;SDS011;494;48.744;10.106;2022-10-17T04:39:03;19.63;;;8.20;;
1010;SDS011;494;48.744;10.106;2022-10-17T04:41:32;17.50;;;8.37;;
1010;SDS011;494;48.744;10.106;2022-10-17T04:44:01;16.67;;;8.20;;
1010;SDS011;494;48.744;10.106;2022-10-17T04:46:29;20.20;;;8.20;;
1010;SDS011;494;48.744;10.106;2022-10-17T04:49:01;19.93;;;9.87;;
1010;SDS011;494;48.744;10.106;2022-10-17T04:51:30;18.30;;;10.10;;
1010;SDS011;494;48.744;10.106;2022-10-17T04:53:59;22.60;;;9.70;;
1010;SDS011;494;48.744;10.106;2022-10-17T04:56:28;18.13;;;11.70;;
1010;SDS011;494;48.744;10.106;2022-10-17T04:58:56;31.87;;;13.40;;
1010;SDS011;494;48.744;10.106;2022-10-17T05:01:26;20.83;;;11.37;;
1010;SDS011;494;48.744;10.106;2022-10-17T05:03:55;22.87;;;12.40;;
1010;SDS011;494;48.744;10.106;2022-10-17T05:06:27;19.80;;;11.93;;
1010;SDS011;494;48.744;10.106;2022-10-17T05:08:58;21.67;;;9.80;;
1010;SDS011;494;48.744;10.106;2022-10-17T05:11:27;27.83;;;12.13;;
1010;SDS011;494;48.744;10.106;2022-10-17T05:13:57;27.07;;;12.20;;
1010;SDS011;494;48.744;10.106;2022-10-17T05:16:31;18.60;;;9.97;;
1010;SDS011;494;48.744;10.106;2022-10-17T05:18:59;16.33;;;10.30;;
1010;SDS011;494;48.744;10.106;2022-10-17T05:21:30;18.90;;;8.87;;
1010;SDS011;494;48.744;10.106;2022-10-17T05:23:58;15.77;;;7.30;;
1010;SDS011;494;48.744;10.106;2022-10-17T05:26:27;19.40;;;7.70;;
1010;SDS011;494;48.744;10.106;2022-10-17T05:28:55;21.60;;;9.53;;
1010;SDS011;494;48.744;10.106;2022-10-17T05:31:25;16.53;;;9.50;;
1010;SDS011;494;48.744;10.106;2022-10-17T05:33:54;11.80;;;7.20;;
1010;SDS011;494;48.744;10.106;2022-10-17T05:36:26;15.73;;;3.90;;
1010;SDS011;494;48.744;10.106;2022-10-17T05:38:56;16.83;;;7.17;;
1010;SDS011;494;48.744;10.106;2022-10-17T05:41:25;16.47;;;8.53;;
1010;SDS011;494;48.744;10.106;2022-10-17T05:43:53;18.03;;;9.00;;
1010;SDS011;494;48.744;10.106;2022-10-17T05:46:26;21.07;;;6.33;;
1010;SDS011;494;48.744;10.106;2022-10-17T05:48:55;16.30;;;8.10;;
1010;SDS011;494;48.744;10.106;2022-10-17T05:51:24;18.13;;;8.37;;
1010;SDS011;494;48.744;10.106;2022-10-17T05:53:52;17.83;;;8.60;;
1010;SDS011;494;48.744;10.106;2022-10-17T05:56:22;22.47;;;9.77;;
1010;SDS011;494;48.744;10.106;2022-10-17T05:58:51;23.30;;;9.33;;
1010;SDS011;494;48.744;10.106;2022-10-17T06:01:26;22.90;;;10.40;;
1010;SDS011;494;48.744;10.106;2022-10-17T06:03:55;20.07;;;10.00;;
1010;SDS011;494;48.744;10.106;2022-10-17T06:06:23;17.70;;;9.80;;
1010;SDS011;494;48.744;10.106;2022-10-17T06:08:52;18.53;;;10.10;;
1010;SDS011;494;48.744;10.106;2022-10-17T06:11:22;19.00;;;10.27;;
1010;SDS011;494;48.744;10.106;2022-10-17T06:13:51;22.13;;;9.43;;
1010;SDS011;494;48.744;10.106;2022-10-17T06:16:20;18.60;;;9.90;;
1010;SDS011;494;48.744;10.106;2022-10-17T06:18:50;20.77;;;11.10;;
1010;SDS011;494;48.744;10.106;2022-10-17T06:21:20;19.23;;;9.20;;
1010;SDS011;494;48.744;10.106;2022-10-17T06:23:51;18.40;;;8.80;;
1010;SDS011;494;48.744;10.106;2022-10-17T06:26:20;18.80;;;8.70;;
1010;SDS011;494;48.744;10.106;2022-10-17T06:28:53;19.80;;;7.50;;
1010;SDS011;494;48.744;10.106;2022-10-17T06:31:23;17.00;;;8.07;;
1010;SDS011;494;48.744;10.106;2022-10-17T06:33:51;17.00;;;7.27;;
1010;SDS011;494;48.744;10.106;2022-10-17T06:36:20;20.30;;;7.63;;
1010;SDS011;494;48.744;10.106;2022-10-17T06:38:49;15.83;;;8.30;;
1010;SDS011;494;48.744;10.106;2022-10-17T06:41:18;25.53;;;8.87;;
1010;SDS011;494;48.744;10.106;2022-10-17T06:43:49;21.10;;;9.20;;
1010;SDS011;494;48.744;10.106;2022-10-17T06:46:18;23.53;;;7.73;;
1010;SDS011;494;48.744;10.106;2022-10-17T06:48:47;28.30;;;8.63;;
1010;SDS011;494;48.744;10.106;2022-10-17T06:51:16;22.17;;;9.00;;
1010;SDS011;494;48.744;10.106;2022-10-17T06:53:45;23.63;;;10.40;;
1010;SDS011;494;48.744;10.106;2022-10-17T06:56:14;25.10;;;9.87;;
1010;SDS011;494;48.744;10.106;2022-10-17T06:58:44;22.37;;;8.40;;
1010;SDS011;494;48.744;10.106;2022-10-17T07:01:16;23.23;;;10.30;;
1010;SDS011;494;48.744;10.106;2022-10-17T07:03:46;17.53;;;9.60;;
1010;SDS011;494;48.744;10.106;2022-10-17T07:06:16;27.50;;;11.20;;
1010;SDS011;494;48.744;10.106;2022-10-17T07:08:45;25.83;;;10.37;;
1010;SDS011;494;48.744;10.106;2022-10-17T07:11:15;25.20;;;10.60;;
1010;SDS011;494;48.744;10.106;2022-10-17T07:13:46;22.30;;;10.00;;
1010;SDS011;494;48.744;10.106;2022-10-17T07:16:17;17.60;;;9.27;;
1010;SDS011;494;48.744;10.106;2022-10-17T07:18:47;23.57;;;9.23;;
1010;SDS011;494;48.744;10.106;2022-10-17T07:21:16;20.43;;;8.33;;
1010;SDS011;494;48.744;10.106;2022-10-17T07:23:45;27.57;;;9.63;;
1010;SDS011;494;48.744;10.106;2022-10-17T07:26:14;25.07;;;9.97;;
1010;SDS011;494;48.744;10.106;2022-10-17T07:28:44;22.73;;;8.40;;
1010;SDS011;494;48.744;10.106;2022-10-17T07:31:20;21.33;;;8.20;;
1010;SDS011;494;48.744;10.106;2022-10-17T07:33:50;22.33;;;9.17;;
1010;SDS011;494;48.744;10.106;2022-10-17T07:36:20;28.90;;;11.93;;
1010;SDS011;494;48.744;10.106;2022-10-17T07:38:49;26.93;;;9.27;;
1010;SDS011;494;48.744;10.106;2022-10-17T07:41:17;30.63;;;7.30;;
1010;SDS011;494;48.744;10.106;2022-10-17T07:43:47;18.13;;;8.00;;
1010;SDS011;494;48.744;10.106;2022-10-17T07:46:16;18.93;;;6.27;;
1010;SDS011;494;48.744;10.106;2022-10-17T07:48:47;21.00;;;6.73;;
1010;SDS011;494;48.744;10.106;2022-10-17T07:51:15;18.00;;;6.40;;
1010;SDS011;494;48.744;10.106;2022-10-17T07:53:45;30.43;;;12.57;;
1010;SDS011;494;48.744;10.106;2022-10-17T07:56:15;26.80;;;6.40;;
1010;SDS011;494;48.744;10.106;2022-10-17T07:58:44;28.50;;;7.87;;
1010;SDS011;494;48.744;10.106;2022-10-17T08:01:13;34.93;;;6.57;;
1010;SDS011;494;48.744;10.106;2022-10-17T08:03:43;26.23;;;5.77;;
1010;SDS011;494;48.744;10.106;2022-10-17T08:06:15;29.73;;;6.10;;
1010;SDS011;494;48.744;10.106;2022-10-17T08:08:45;30.90;;;5.60;;
1010;SDS011;494;48.744;10.106;2022-10-17T08:11:13;33.07;;;6.80;;
1010;SDS011;494;48.744;10.106;2022-10-17T08:13:42;44.27;;;8.23;;
1010;SDS011;494;48.744;10.106;2022-10-17T08:16:11;32.93;;;7.37;;
1010;SDS011;494;48.744;10.106;2022-10-17T08:18:41;36.30;;;7.10;;
1010;SDS011;494;48.744;10.106;2022-10-17T08:21:11;37.47;;;7.83;;
1010;SDS011;494;48.744;10.106;2022-10-17T08:23:41;42.33;;;7.20;;
1010;SDS011;494;48.744;10.106;2022-10-17T08:26:10;43.33;;;8.57;;
1010;SDS011;494;48.744;10.106;2022-10-17T08:28:45;39.37;;;8.40;;
1010;SDS011;494;48.744;10.106;2022-10-17T08:31:16;34.03;;;6.83;;
1010;SDS011;494;48.744;10.106;2022-10-17T08:33:47;22.93;;;6.07;;
1010;SDS011;494;48.744;10.106;2022-10-17T08:36:17;32.63;;;6.77;;
1010;SDS011;494;48.744;10.106;2022-10-17T08:38:48;24.37;;;7.70;;
1010;SDS011;494;48.744;10.106;2022-10-17T08:41:23;19.40;;;6.40;;
1010;SDS011;494;48.744;10.106;2022-10-17T08:44:24;26.10;;;8.20;;
1010;SDS011;494;48.744;10.106;2022-10-17T08:47:10;17.93;;;6.77;;
1010;SDS011;494;48.744;10.106;2022-10-17T08:49:49;18.70;;;7.13;;
1010;SDS011;494;48.744;10.106;2022-10-17T08:52:23;18.90;;;7.67;;
1010;SDS011;494;48.744;10.106;2022-10-17T08:55:04;20.40;;;7.53;;
1010;SDS011;494;48.744;10.106;2022-10-17T08:57:44;20.43;;;6.50;;
1010;SDS011;494;48.744;10.106;2022-10-17T09:00:17;20.87;;;6.83;;
1010;SDS011;494;48.744;10.106;2022-10-17T09:02:51;19.90;;;6.23;;
1010;SDS011;494;48.744;10.106;2022-10-17T09:05:43;21.40;;;7.00;;
1010;SDS011;494;48.744;10.106;2022-10-17T09:08:28;15.23;;;6.20;;
1010;SDS011;494;48.744;10.106;2022-10-17T09:11:13;17.23;;;6.07;;
1010;SDS011;494;48.744;10.106;2022-10-17T09:13:56;17.00;;;6.80;;
1010;SDS011;494;48.744;10.106;2022-10-17T09:16:46;19.33;;;7.17;;
1010;SDS011;494;48.744;10.106;2022-10-17T09:19:40;18.10;;;6.23;;
1010;SDS011;494;48.744;10.106;2022-10-17T09:22:19;18.37;;;9.03;;
1010;SDS011;494;48.744;10.106;2022-10-17T09:24:53;16.73;;;6.77;;
1010;SDS011;494;48.744;10.106;2022-10-17T09:27:32;20.13;;;6.87;;
1010;SDS011;494;48.744;10.106;2022-10-17T09:30:16;20.13;;;7.80;;
1010;SDS011;494;48.744;10.106;2022-10-17T09:33:13;20.77;;;7.83;;
1010;SDS011;494;48.744;10.106;2022-10-17T09:36:05;17.57;;;7.13;;
1010;SDS011;494;48.744;10.106;2022-10-17T09:38:41;17.30;;;5.47;;
1010;SDS011;494;48.744;10.106;2022-10-17T09:41:15;17.43;;;6.73;;
1010;SDS011;494;48.744;10.106;2022-10-17T09:44:13;18.80;;;6.03;;
1010;SDS011;494;48.744;10.106;2022-10-17T09:46:59;19.13;;;6.40;;
1010;SDS011;494;48.744;10.106;2022-10-17T09:49:42;18.77;;;6.07;;
1010;SDS011;494;48.744;10.106;2022-10-17T09:52:14;15.47;;;5.30;;
1010;SDS011;494;48.744;10.106;2022-10-17T09:54:46;17.57;;;5.60;;
1010;SDS011;494;48.744;10.106;2022-10-17T09:57:18;18.40;;;4.93;;
1010;SDS011;494;48.744;10.106;2022-10-17T09:59:56;18.80;;;5.97;;
1010;SDS011;494;48.744;10.106;2022-10-17T10:02:28;19.50;;;5.53;;
1010;SDS011;494;48.744;10.106;2022-10-17T10:05:02;16.90;;;5.70;;
1010;SDS011;494;48.744;10.106;2022-10-17T10:07:58;18.20;;;5.10;;
1010;SDS011;494;48.744;10.106;2022-10-17T10:10:31;18.03;;;5.20;;
1010;SDS011;494;48.744;10.106;2022-10-17T10:13:02;15.43;;;5.00;;
1010;SDS011;494;48.744;10.106;2022-10-17T10:15:36;16.47;;;4.97;;
1010;SDS011;494;48.744;10.106;2022-10-17T10:18:25;17.70;;;6.40;;
1010;SDS011;494;48.744;10.106;2022-10-17T10:21:03;14.90;;;5.00;;
1010;SDS011;494;48.744;10.106;2022-10-17T10:23:39;21.00;;;5.20;;
1010;SDS011;494;48.744;10.106;2022-10-17T10:26:20;16.43;;;5.20;;
1010;SDS011;494;48.744;10.106;2022-10-17T10:28:53;16.43;;;4.90;;
1010;SDS011;494;48.744;10.106;2022-10-17T10:31:31;15.57;;;4.90;;
1010;SDS011;494;48.744;10.106;2022-10-17T10:34:11;15.30;;;5.23;;
1010;SDS011;494;48.744;10.106;2022-10-17T10:36:51;17.53;;;6.10;;
1010;SDS011;494;48.744;10.106;2022-10-17T10:39:29;19.50;;;5.80;;
1010;SDS011;494;48.744;10.106;2022-10-17T10:42:08;19.33;;;6.57;;
1010;SDS011;494;48.744;10.106;2022-10-17T10:44:49;21.20;;;5.70;;
1010;SDS011;494;48.744;10.106;2022-10-17T10:47:24;18.27;;;5.50;;
1010;SDS011;494;48.744;10.106;2022-10-17T10:50:16;17.20;;;5.20;;
1010;SDS011;494;48.744;10.106;2022-10-17T10:53:04;18.23;;;5.23;;
1010;SDS011;494;48.744;10.106;2022-10-17T10:55:50;18.67;;;6.10;;
1010;SDS011;494;48.744;10.106;2022-10-17T10:58:26;20.20;;;5.30;;
1010;SDS011;494;48.744;10.106;2022-10-17T11:01:11;19.53;;;5.63;;
1010;SDS011;494;48.744;10.106;2022-10-17T11:03:58;17.90;;;6.53;;
1010;SDS011;494;48.744;10.106;2022-10-17T11:06:42;17.30;;;5.97;;
1010;SDS011;494;48.744;10.106;2022-10-17T11:09:15;16.30;;;6.03;;
1010;SDS011;494;48.744;10.106;2022-10-17T11:12:00;15.93;;;5.77;;
1010;SDS011;494;48.744;10.106;2022-10-17T11:14:38;18.37;;;5.50;;
1010;SDS011;494;48.744;10.106;2022-10-17T11:17:16;16.53;;;5.73;;
1010;SDS011;494;48.744;10.106;2022-10-17T11:20:08;17.60;;;5.63;;
1010;SDS011;494;48.744;10.106;2022-10-17T11:22:45;16.17;;;5.67;;
1010;SDS011;494;48.744;10.106;2022-10-17T11:25:20;16.57;;;5.33;;
1010;SDS011;494;48.744;10.106;2022-10-17T11:28:01;17.90;;;5.60;;
1010;SDS011;494;48.744;10.106;2022-10-17T11:30:38;17.87;;;5.77;;
1010;SDS011;494;48.744;10.106;2022-10-17T11:33:14;17.83;;;5.87;;
1010;SDS011;494;48.744;10.106;2022-10-17T11:35:54;17.47;;;5.27;;
1010;SDS011;494;48.744;10.106;2022-10-17T11:38:35;17.20;;;5.50;;
1010;SDS011;494;48.744;10.106;2022-10-17T11:41:13;17.83;;;5.67;;
1010;SDS011;494;48.744;10.106;2022-10-17T11:43:50;19.03;;;5.30;;
1010;SDS011;494;48.744;10.106;2022-10-17T11:46:24;15.67;;;5.20;;
1010;SDS011;494;48.744;10.106;2022-10-17T11:49:03;23.53;;;5.40;;
1010;SDS011;494;48.744;10.106;2022-10-17T11:51:47;18.40;;;8.20;;
1010;SDS011;494;48.744;10.106;2022-10-17T11:54:27;16.63;;;5.90;;
1010;SDS011;494;48.744;10.106;2022-10-17T11:57:08;21.03;;;5.40;;
1010;SDS011;494;48.744;10.106;2022-10-17T11:59:58;17.30;;;5.70;;
1010;SDS011;494;48.744;10.106;2022-10-17T12:02:50;18.00;;;5.17;;
1010;SDS011;494;48.744;10.106;2022-10-17T12:05:36;15.27;;;5.20;;
1010;SDS011;494;48.744;10.106;2022-10-17T12:08:19;19.87;;;5.60;;
1010;SDS011;494;48.744;10.106;2022-10-17T12:10:57;19.37;;;5.20;;
1010;SDS011;494;48.744;10.106;2022-10-17T12:13:47;19.03;;;5.30;;
1010;SDS011;494;48.744;10.106;2022-10-17T12:19:27;16.83;;;5.70;;
1010;SDS011;494;48.744;10.106;2022-10-17T12:22:16;18.73;;;5.20;;
1010;SDS011;494;48.744;10.106;2022-10-17T12:24:57;18.50;;;5.60;;
1010;SDS011;494;48.744;10.106;2022-10-17T12:27:32;25.03;;;5.10;;
1010;SDS011;494;48.744;10.106;2022-10-17T12:33:02;16.60;;;4.30;;
1010;SDS011;494;48.744;10.106;2022-10-17T12:35:43;17.53;;;5.17;;
1010;SDS011;494;48.744;10.106;2022-10-17T12:38:22;18.23;;;5.17;;
1010;SDS011;494;48.744;10.106;2022-10-17T12:41:02;17.33;;;5.07;;
1010;SDS011;494;48.744;10.106;2022-10-17T12:43:36;21.30;;;4.83;;
1010;SDS011;494;48.744;10.106;2022-10-17T12:46:41;15.88;;;5.38;;
1010;SDS011;494;48.744;10.106;2022-10-17T12:52:22;21.42;;;5.88;;
1010;SDS011;494;48.744;10.106;2022-10-17T12:55:12;18.70;;;5.20;;
1010;SDS011;494;48.744;10.106;2022-10-17T12:57:48;18.25;;;4.70;;
1010;SDS011;494;48.744;10.106;2022-10-17T13:00:26;22.27;;;4.45;;
1010;SDS011;494;48.744;10.106;2022-10-17T13:03:04;16.75;;;4.25;;
1010;SDS011;494;48.744;10.106;2022-10-17T13:05:40;17.08;;;3.80;;
1010;SDS011;494;48.744;10.106;2022-10-17T13:08:14;16.75;;;3.10;;
1010;SDS011;494;48.744;10.106;2022-10-17T13:10:48;17.30;;;2.90;;
1010;SDS011;494;48.744;10.106;2022-10-17T13:13:22;13.88;;;2.85;;
1010;SDS011;494;48.744;10.106;2022-10-17T13:15:59;14.70;;;2.83;;
1010;SDS011;494;48.744;10.106;2022-10-17T13:18:28;14.90;;;3.30;;
1010;SDS011;494;48.744;10.106;2022-10-17T13:20:58;17.30;;;2.97;;
1010;SDS011;494;48.744;10.106;2022-10-17T13:23:32;17.07;;;3.10;;
1010;SDS011;494;48.744;10.106;2022-10-17T13:26:07;15.77;;;3.00;;
1010;SDS011;494;48.744;10.106;2022-10-17T13:28:58;13.33;;;2.87;;
1010;SDS011;494;48.744;10.106;2022-10-17T13:31:30;21.07;;;3.40;;
1010;SDS011;494;48.744;10.106;2022-10-17T13:34:02;17.90;;;2.90;;
1010;SDS011;494;48.744;10.106;2022-10-17T13:36:32;19.83;;;3.70;;
1010;SDS011;494;48.744;10.106;2022-10-17T13:39:04;18.33;;;3.20;;
1010;SDS011;494;48.744;10.106;2022-10-17T13:41:40;14.00;;;3.00;;
1010;SDS011;494;48.744;10.106;2022-10-17T13:44:11;19.80;;;3.73;;
1010;SDS011;494;48.744;10.106;2022-10-17T13:46:43;13.80;;;3.20;;
1010;SDS011;494;48.744;10.106;2022-10-17T13:49:17;14.27;;;3.40;;
1010;SDS011;494;48.744;10.106;2022-10-17T13:51:53;13.00;;;2.95;;
1010;SDS011;494;48.744;10.106;2022-10-17T13:54:30;16.53;;;3.43;;
1010;SDS011;494;48.744;10.106;2022-10-17T13:57:02;18.37;;;4.10;;
1010;SDS011;494;48.744;10.106;2022-10-17T13:59:37;15.13;;;3.93;;
1010;SDS011;494;48.744;10.106;2022-10-17T14:02:12;17.97;;;3.60;;
1010;SDS011;494;48.744;10.106;2022-10-17T14:04:43;14.20;;;3.37;;
1010;SDS011;494;48.744;10.106;2022-10-17T14:07:33;17.13;;;3.30;;
1010;SDS011;494;48.744;10.106;2022-10-17T14:10:29;15.97;;;3.33;;
1010;SDS011;494;48.744;10.106;2022-10-17T14:13:02;12.90;;;3.23;;
1010;SDS011;494;48.744;10.106;2022-10-17T14:15:35;14.93;;;3.60;;
1010;SDS011;494;48.744;10.106;2022-10-17T14:18:16;16.73;;;3.43;;
1010;SDS011;494;48.744;10.106;2022-10-17T14:20:50;16.43;;;3.20;;
1010;SDS011;494;48.744;10.106;2022-10-17T14:23:40;13.97;;;3.53;;
1010;SDS011;494;48.744;10.106;2022-10-17T14:26:12;17.43;;;3.83;;
1010;SDS011;494;48.744;10.106;2022-10-17T14:28:44;17.07;;;3.40;;
1010;SDS011;494;48.744;10.106;2022-10-17T14:31:22;15.00;;;3.70;;
1010;SDS011;494;48.744;10.106;2022-10-17T14:33:57;19.93;;;3.70;;
1010;SDS011;494;48.744;10.106;2022-10-17T14:36:32;18.27;;;3.77;;
1010;SDS011;494;48.744;10.106;2022-10-17T14:39:05;17.57;;;3.50;;
1010;SDS011;494;48.744;10.106;2022-10-17T14:41:44;18.33;;;3.73;;
1010;SDS011;494;48.744;10.106;2022-10-17T14:44:17;15.57;;;3.80;;
1010;SDS011;494;48.744;10.106;2022-10-17T14:46:53;16.00;;;3.80;;
1010;SDS011;494;48.744;10.106;2022-10-17T14:49:39;19.40;;;3.77;;
1010;SDS011;494;48.744;10.106;2022-10-17T14:52:09;17.90;;;3.93;;
1010;SDS011;494;48.744;10.106;2022-10-17T14:54:44;21.43;;;3.77;;
1010;SDS011;494;48.744;10.106;2022-10-17T14:57:16;21.43;;;4.40;;
1010;SDS011;494;48.744;10.106;2022-10-17T14:59:48;17.43;;;3.87;;
1010;SDS011;494;48.744;10.106;2022-10-17T15:02:21;17.03;;;3.77;;
1010;SDS011;494;48.744;10.106;2022-10-17T15:04:52;18.00;;;4.03;;
1010;SDS011;494;48.744;10.106;2022-10-17T15:07:21;19.40;;;4.63;;
1010;SDS011;494;48.744;10.106;2022-10-17T15:09:50;21.20;;;4.13;;
1010;SDS011;494;48.744;10.106;2022-10-17T15:12:22;24.80;;;4.13;;
1010;SDS011;494;48.744;10.106;2022-10-17T15:14:53;22.67;;;4.17;;
1010;SDS011;494;48.744;10.106;2022-10-17T15:17:24;18.43;;;3.63;;
1010;SDS011;494;48.744;10.106;2022-10-17T15:19:55;30.50;;;3.93;;
1010;SDS011;494;48.744;10.106;2022-10-17T15:22:26;23.30;;;3.80;;
1010;SDS011;494;48.744;10.106;2022-10-17T15:24:57;22.50;;;4.07;;
1010;SDS011;494;48.744;10.106;2022-10-17T15:27:25;18.43;;;3.90;;
1010;SDS011;494;48.744;10.106;2022-10-17T15:29:56;24.97;;;4.37;;
1010;SDS011;494;48.744;10.106;2022-10-17T15:32:26;21.33;;;3.70;;
1010;SDS011;494;48.744;10.106;2022-10-17T15:34:55;21.10;;;4.43;;
1010;SDS011;494;48.744;10.106;2022-10-17T15:37:24;21.93;;;3.40;;
1010;SDS011;494;48.744;10.106;2022-10-17T15:39:59;15.87;;;3.30;;
1010;SDS011;494;48.744;10.106;2022-10-17T15:42:28;24.03;;;4.23;;
1010;SDS011;494;48.744;10.106;2022-10-17T15:44:58;21.90;;;4.13;;
1010;SDS011;494;48.744;10.106;2022-10-17T15:47:28;21.87;;;3.83;;
1010;SDS011;494;48.744;10.106;2022-10-17T15:50:00;17.50;;;3.77;;
1010;SDS011;494;48.744;10.106;2022-10-17T15:52:28;19.07;;;3.50;;
1010;SDS011;494;48.744;10.106;2022-10-17T15:54:57;21.30;;;3.33;;
1010;SDS011;494;48.744;10.106;2022-10-17T15:57:32;21.53;;;3.90;;
1010;SDS011;494;48.744;10.106;2022-10-17T16:00:06;24.20;;;4.07;;